Time;durP1;ratioP1;P1;durP2;ratioP2;P2;SDS_P1;SDS_P2;PMS_P1;PMS_P2;Temp;Humidity;BMP_temperature;BMP_pressure;BME280_temperature;BME280_humidity;BME280_pressure;Samples;Min_cycle;Max_cycle;Signal;HPM_P1;HPM_P2
2021/06/25 00:01:14;;;;;;;;;16.50;16.50;;;;;;;;4968741;28;9655;-96
2021/06/25 00:03:41;;;;;;;;;16.75;16.25;;;;;;;;4975761;28;9750;-96
2021/06/25 00:06:09;;;;;;;;;12.00;11.00;;;;;;;;4968851;28;9608;-96
2021/06/25 00:08:36;;;;;;;;;15.50;15.00;;;;;;;;4968819;28;9754;-92
2021/06/25 00:11:05;;;;;;;;;16.25;16.00;;;;;;;;4967720;28;9737;-94
2021/06/25 00:13:32;;;;;;;;;17.00;15.25;;;;;;;;4973123;28;9835;-90
2021/06/25 00:16:01;;;;;;;;;23.00;17.75;;;;;;;;4973280;28;9642;-96
2021/06/25 00:18:28;;;;;;;;;16.50;14.00;;;;;;;;4966958;28;10419;-93
2021/06/25 00:20:56;;;;;;;;;15.75;15.75;;;;;;;;4969453;28;9808;-94
2021/06/25 00:23:23;;;;;;;;;16.00;16.00;;;;;;;;4966033;28;9800;-94
2021/06/25 00:25:51;;;;;;;;;17.75;12.25;;;;;;;;4964628;28;9722;-93
2021/06/25 00:28:19;;;;;;;;;17.50;17.50;;;;;;;;4981796;28;9894;-87
2021/06/25 00:30:47;;;;;;;;;16.50;16.50;;;;;;;;4967366;28;9840;-94
2021/06/25 00:33:14;;;;;;;;;14.25;14.25;;;;;;;;4967466;28;9928;-94
2021/06/25 00:35:41;;;;;;;;;14.50;14.50;;;;;;;;4967627;28;9927;-85
2021/06/25 00:38:09;;;;;;;;;18.25;16.25;;;;;;;;4968755;28;10003;-90
2021/06/25 00:40:37;;;;;;;;;20.50;18.50;;;;;;;;4965323;28;10025;-93
2021/06/25 00:43:05;;;;;;;;;17.00;17.00;;;;;;;;4964739;28;10139;-94
2021/06/25 00:45:33;;;;;;;;;19.50;19.50;;;;;;;;4967182;28;9952;-92
2021/06/25 00:48:01;;;;;;;;;20.75;20.75;;;;;;;;4963866;28;10137;-94
2021/06/25 00:50:31;;;;;;;;;20.25;20.25;;;;;;;;4968436;28;10167;-91
2021/06/25 00:52:59;;;;;;;;;22.00;21.00;;;;;;;;4963091;28;10086;-93
2021/06/25 00:55:28;;;;;;;;;24.25;21.00;;;;;;;;4963972;28;10086;-94
2021/06/25 00:57:56;;;;;;;;;16.50;16.50;;;;;;;;4964175;28;10240;-93
2021/06/25 01:00:24;;;;;;;;;21.50;20.00;;;;;;;;4969964;28;10081;-89
2021/06/25 01:02:52;;;;;;;;;20.25;19.75;;;;;;;;4968872;28;9957;-92
2021/06/25 01:05:20;;;;;;;;;21.00;20.25;;;;;;;;4966187;28;10038;-90
2021/06/25 01:07:47;;;;;;;;;19.75;19.50;;;;;;;;4967268;28;10153;-93
2021/06/25 01:10:15;;;;;;;;;17.75;16.00;;;;;;;;4963518;28;10219;-92
2021/06/25 01:12:43;;;;;;;;;20.25;18.25;;;;;;;;4965481;28;10216;-93
2021/06/25 01:15:12;;;;;;;;;19.25;16.75;;;;;;;;4964141;28;10249;-95
2021/06/25 01:17:41;;;;;;;;;15.50;15.50;;;;;;;;4961767;28;10134;-91
2021/06/25 01:20:12;;;;;;;;;22.00;21.00;;;;;;;;4965588;28;10150;-94
2021/06/25 01:22:42;;;;;;;;;26.50;20.50;;;;;;;;4964747;28;10139;-93
2021/06/25 01:25:13;;;;;;;;;21.50;20.50;;;;;;;;4962875;28;10229;-94
2021/06/25 01:27:40;;;;;;;;;19.75;19.75;;;;;;;;4965997;28;10405;-92
2021/06/25 01:30:11;;;;;;;;;18.00;17.50;;;;;;;;4960468;28;10317;-91
2021/06/25 01:32:40;;;;;;;;;34.25;26.50;;;;;;;;4966920;28;10377;-96
2021/06/25 01:35:09;;;;;;;;;25.25;20.75;;;;;;;;4967905;28;10343;-92
2021/06/25 01:37:37;;;;;;;;;22.00;20.25;;;;;;;;4970896;28;10235;-95
2021/06/25 01:40:08;;;;;;;;;27.25;25.00;;;;;;;;4969698;28;10380;-93
2021/06/25 01:42:38;;;;;;;;;24.00;24.00;;;;;;;;4970951;28;10423;-94
2021/06/25 01:45:08;;;;;;;;;30.00;26.25;;;;;;;;4967920;28;10267;-95
2021/06/25 01:47:37;;;;;;;;;25.75;23.25;;;;;;;;4976794;28;11082;-89
2021/06/25 01:50:06;;;;;;;;;27.75;26.00;;;;;;;;4971214;28;10260;-94
2021/06/25 01:52:33;;;;;;;;;18.75;18.75;;;;;;;;4965643;28;10269;-88
2021/06/25 01:55:00;;;;;;;;;22.00;19.75;;;;;;;;4965741;28;10513;-95
2021/06/25 01:57:32;;;;;;;;;23.75;22.75;;;;;;;;4964485;28;10260;-95
2021/06/25 01:59:59;;;;;;;;;22.25;22.25;;;;;;;;4966804;28;10246;-95
2021/06/25 02:02:27;;;;;;;;;25.75;24.00;;;;;;;;4965157;28;10557;-93
2021/06/25 02:04:54;;;;;;;;;29.50;25.25;;;;;;;;4966787;28;10401;-95
2021/06/25 02:07:21;;;;;;;;;25.25;25.25;;;;;;;;4967391;28;10249;-94
2021/06/25 02:09:49;;;;;;;;;21.50;20.25;;;;;;;;4965035;28;10127;-91
2021/06/25 02:12:16;;;;;;;;;27.50;25.00;;;;;;;;4965150;28;10142;-93
2021/06/25 02:14:45;;;;;;;;;22.75;20.25;;;;;;;;4964293;28;10142;-91
2021/06/25 02:17:12;;;;;;;;;19.75;16.75;;;;;;;;4964200;28;10313;-93
2021/06/25 02:19:40;;;;;;;;;19.00;14.00;;;;;;;;4968917;28;10131;-92
2021/06/25 02:22:07;;;;;;;;;19.25;18.75;;;;;;;;4964635;28;10158;-93
2021/06/25 02:24:35;;;;;;;;;24.00;21.00;;;;;;;;4963720;28;11009;-92
2021/06/25 02:27:02;;;;;;;;;23.50;20.00;;;;;;;;4965907;28;10498;-86
2021/06/25 02:29:29;;;;;;;;;21.00;19.25;;;;;;;;4966307;28;10341;-91
2021/06/25 02:31:59;;;;;;;;;25.50;22.25;;;;;;;;4963303;28;10100;-89
2021/06/25 02:34:26;;;;;;;;;22.25;20.00;;;;;;;;4963040;28;10417;-92
2021/06/25 02:36:54;;;;;;;;;20.25;18.75;;;;;;;;4962419;28;10398;-94
2021/06/25 02:39:21;;;;;;;;;16.50;14.50;;;;;;;;4964902;28;10434;-94
2021/06/25 02:41:49;;;;;;;;;24.75;22.50;;;;;;;;4962754;28;10339;-93
2021/06/25 02:44:16;;;;;;;;;20.50;18.00;;;;;;;;4947953;28;10315;-91
2021/06/25 02:46:43;;;;;;;;;15.00;14.75;;;;;;;;4963941;28;10448;-95
2021/06/25 02:49:12;;;;;;;;;14.00;14.00;;;;;;;;4967841;28;10276;-91
2021/06/25 02:51:40;;;;;;;;;20.00;16.50;;;;;;;;4965780;28;10280;-95
2021/06/25 02:54:07;;;;;;;;;16.25;14.50;;;;;;;;4967434;28;10308;-96
2021/06/25 02:56:34;;;;;;;;;19.75;19.75;;;;;;;;4965723;28;10139;-94
2021/06/25 02:59:02;;;;;;;;;20.50;19.00;;;;;;;;4963878;28;10528;-93
2021/06/25 03:01:29;;;;;;;;;22.50;21.00;;;;;;;;4972459;28;10562;-95
2021/06/25 03:03:56;;;;;;;;;22.50;19.00;;;;;;;;4967247;28;10472;-91
2021/06/25 03:06:25;;;;;;;;;19.25;18.00;;;;;;;;4967766;28;10404;-93
2021/06/25 03:08:52;;;;;;;;;20.75;20.00;;;;;;;;4966241;28;10372;-95
2021/06/25 03:11:20;;;;;;;;;19.25;13.75;;;;;;;;4967576;28;11364;-94
2021/06/25 03:13:47;;;;;;;;;12.50;12.25;;;;;;;;4969507;28;10603;-93
2021/06/25 03:16:15;;;;;;;;;20.25;20.25;;;;;;;;4968323;28;10326;-96
2021/06/25 03:18:42;;;;;;;;;17.25;17.00;;;;;;;;4968958;28;10545;-95
2021/06/25 03:21:09;;;;;;;;;25.75;24.75;;;;;;;;4967894;28;11287;-86
2021/06/25 03:23:38;;;;;;;;;22.75;20.25;;;;;;;;4968207;28;10449;-86
2021/06/25 03:26:06;;;;;;;;;25.00;25.00;;;;;;;;4965804;28;10515;-92
2021/06/25 03:28:33;;;;;;;;;22.50;21.50;;;;;;;;4970674;28;10606;-91
2021/06/25 03:31:00;;;;;;;;;24.75;21.00;;;;;;;;4966524;28;10609;-93
2021/06/25 03:33:27;;;;;;;;;22.75;22.75;;;;;;;;4970446;28;10312;-88
2021/06/25 03:35:55;;;;;;;;;22.50;22.50;;;;;;;;4970061;28;10374;-89
2021/06/25 03:38:22;;;;;;;;;20.75;19.50;;;;;;;;4970615;28;10326;-91
2021/06/25 03:40:51;;;;;;;;;26.50;24.75;;;;;;;;4968865;28;10258;-89
2021/06/25 03:43:19;;;;;;;;;26.75;21.75;;;;;;;;4965679;28;10424;-89
2021/06/25 03:45:46;;;;;;;;;25.00;19.50;;;;;;;;4965374;28;10247;-89
2021/06/25 03:48:13;;;;;;;;;22.75;20.00;;;;;;;;4967459;28;10342;-90
2021/06/25 03:50:41;;;;;;;;;20.00;19.00;;;;;;;;4976441;28;10086;-90
2021/06/25 03:53:08;;;;;;;;;22.75;20.50;;;;;;;;4971797;28;10254;-93
2021/06/25 03:55:36;;;;;;;;;18.75;18.75;;;;;;;;4965781;28;10096;-94
2021/06/25 03:58:05;;;;;;;;;24.00;24.00;;;;;;;;4970155;28;10153;-93
2021/06/25 04:00:32;;;;;;;;;23.00;21.25;;;;;;;;4967950;28;10090;-91
2021/06/25 04:02:59;;;;;;;;;20.25;16.75;;;;;;;;4969070;28;10079;-92
2021/06/25 04:05:27;;;;;;;;;22.25;21.25;;;;;;;;4966684;28;10032;-93
2021/06/25 04:07:54;;;;;;;;;26.00;21.25;;;;;;;;4965913;28;10089;-93
2021/06/25 04:10:21;;;;;;;;;16.50;16.50;;;;;;;;4967672;28;10814;-91
2021/06/25 04:12:49;;;;;;;;;21.00;21.00;;;;;;;;4966746;28;9832;-93
2021/06/25 04:15:18;;;;;;;;;19.00;16.75;;;;;;;;4970653;28;9734;-92
2021/06/25 04:17:45;;;;;;;;;18.00;18.00;;;;;;;;4967229;28;9630;-94
2021/06/25 04:20:15;;;;;;;;;22.75;21.75;;;;;;;;4949466;28;9806;-93
2021/06/25 04:22:42;;;;;;;;;21.00;21.00;;;;;;;;4973916;28;9759;-90
2021/06/25 04:25:10;;;;;;;;;21.00;18.75;;;;;;;;4964832;28;9747;-88
2021/06/25 04:27:38;;;;;;;;;23.25;20.75;;;;;;;;4966684;28;9635;-90
2021/06/25 04:30:10;;;;;;;;;20.00;17.75;;;;;;;;4963164;28;9575;-88
2021/06/25 04:32:39;;;;;;;;;18.25;18.25;;;;;;;;4965571;28;9754;-88
2021/06/25 04:35:07;;;;;;;;;16.33;16.33;;;;;;;;4967693;28;9611;-89
2021/06/25 04:37:35;;;;;;;;;21.67;21.67;;;;;;;;4967451;28;9434;-89
2021/06/25 04:40:02;;;;;;;;;24.33;20.00;;;;;;;;4963811;28;9420;-89
2021/06/25 04:42:29;;;;;;;;;17.00;17.00;;;;;;;;4965580;28;9530;-87
2021/06/25 04:44:56;;;;;;;;;17.00;16.67;;;;;;;;4965562;28;9405;-90
2021/06/25 04:47:24;;;;;;;;;24.33;19.33;;;;;;;;4965335;28;9383;-90
2021/06/25 04:49:53;;;;;;;;;19.50;17.50;;;;;;;;4966568;28;9408;-90
2021/06/25 04:52:21;;;;;;;;;21.00;19.33;;;;;;;;4965060;28;9518;-90
2021/06/25 04:54:49;;;;;;;;;22.33;19.67;;;;;;;;4966703;28;9450;-88
2021/06/25 04:57:16;;;;;;;;;17.00;15.33;;;;;;;;4964817;28;9379;-89
2021/06/25 04:59:44;;;;;;;;;18.67;18.33;;;;;;;;4963403;28;9283;-89
2021/06/25 05:02:12;;;;;;;;;19.67;19.67;;;;;;;;4965244;28;9332;-91
2021/06/25 05:04:39;;;;;;;;;22.00;20.00;;;;;;;;4966544;28;9417;-90
2021/06/25 05:07:08;;;;;;;;;20.00;18.33;;;;;;;;4965394;28;9384;-89
2021/06/25 05:09:35;;;;;;;;;20.33;18.33;;;;;;;;4964662;28;9172;-94
2021/06/25 05:12:02;;;;;;;;;23.33;21.00;;;;;;;;4966653;28;9124;-89
2021/06/25 05:14:30;;;;;;;;;23.67;21.67;;;;;;;;4966142;28;9218;-92
2021/06/25 05:16:57;;;;;;;;;20.00;20.00;;;;;;;;4966244;28;9492;-87
2021/06/25 05:19:24;;;;;;;;;19.33;19.33;;;;;;;;4970581;28;9041;-85
2021/06/25 05:21:52;;;;;;;;;19.33;18.67;;;;;;;;4964680;28;9218;-87
2021/06/25 05:24:20;;;;;;;;;22.33;21.67;;;;;;;;4965753;28;9110;-90
2021/06/25 05:26:48;;;;;;;;;22.33;22.33;;;;;;;;4965642;28;9130;-91
2021/06/25 05:29:15;;;;;;;;;24.00;20.00;;;;;;;;4963505;28;9086;-88
2021/06/25 05:31:43;;;;;;;;;20.00;20.00;;;;;;;;4964954;28;8999;-86
2021/06/25 05:34:11;;;;;;;;;23.67;23.67;;;;;;;;4965957;28;9035;-85
2021/06/25 05:36:38;;;;;;;;;18.33;17.00;;;;;;;;4959591;28;9105;-84
2021/06/25 05:39:06;;;;;;;;;23.67;21.00;;;;;;;;4963740;28;9181;-87
2021/06/25 05:41:35;;;;;;;;;24.67;23.33;;;;;;;;4963559;28;9132;-91
2021/06/25 05:44:02;;;;;;;;;24.33;21.67;;;;;;;;4959251;28;9250;-91
2021/06/25 05:46:29;;;;;;;;;26.33;25.00;;;;;;;;4967979;28;9047;-91
2021/06/25 05:48:57;;;;;;;;;27.67;24.67;;;;;;;;4960965;28;9630;-81
2021/06/25 05:51:26;;;;;;;;;22.33;22.00;;;;;;;;4962777;28;9244;-81
2021/06/25 05:53:53;;;;;;;;;26.67;26.67;;;;;;;;4961387;28;9037;-80
2021/06/25 05:56:20;;;;;;;;;23.00;21.00;;;;;;;;4963791;28;9108;-81
2021/06/25 05:58:50;;;;;;;;;24.00;24.00;;;;;;;;4962620;28;8973;-80
2021/06/25 06:01:17;;;;;;;;;24.00;22.00;;;;;;;;4963907;28;9111;-80
2021/06/25 06:03:45;;;;;;;;;29.00;23.00;;;;;;;;4964879;28;8973;-80
2021/06/25 06:06:12;;;;;;;;;25.67;23.33;;;;;;;;4959289;28;9924;-82
2021/06/25 06:08:39;;;;;;;;;28.00;24.33;;;;;;;;4963885;28;9092;-80
2021/06/25 06:11:07;;;;;;;;;28.50;28.50;;;;;;;;4963003;28;8972;-81
2021/06/25 06:13:34;;;;;;;;;32.00;29.75;;;;;;;;4965209;28;8905;-80
2021/06/25 06:16:03;;;;;;;;;29.00;27.67;;;;;;;;4962204;28;8881;-79
2021/06/25 06:18:34;;;;;;;;;30.33;29.00;;;;;;;;4963764;28;9097;-80
2021/06/25 06:21:02;;;;;;;;;32.67;31.00;;;;;;;;4962768;28;8924;-88
2021/06/25 06:32:02;;;;;;;;;27.50;26.00;;;;;;;;4938135;28;8818;-85
2021/06/25 06:34:32;;;;;;;;;31.75;30.00;;;;;;;;4962155;28;8873;-80
2021/06/25 06:37:00;;;;;;;;;25.50;25.50;;;;;;;;4965026;28;8865;-86
2021/06/25 06:39:29;;;;;;;;;28.50;28.50;;;;;;;;4967120;28;8881;-84
2021/06/25 06:41:56;;;;;;;;;32.67;32.67;;;;;;;;4967510;28;9718;-91
2021/06/25 06:44:23;;;;;;;;;34.67;32.67;;;;;;;;4969230;28;9079;-88
2021/06/25 06:46:51;;;;;;;;;28.75;27.75;;;;;;;;4968783;28;8961;-83
2021/06/25 06:49:20;;;;;;;;;19.00;19.00;;;;;;;;4966071;28;8991;-84
2021/06/25 06:51:47;;;;;;;;;26.00;25.50;;;;;;;;4962621;28;8889;-83
2021/06/25 06:54:14;;;;;;;;;28.75;27.00;;;;;;;;4968629;28;8931;-90
2021/06/25 06:56:42;;;;;;;;;26.75;25.00;;;;;;;;4969536;28;8915;-86
2021/06/25 06:59:09;;;;;;;;;26.75;26.75;;;;;;;;4966526;28;8881;-85
2021/06/25 07:01:36;;;;;;;;;27.75;26.00;;;;;;;;4961286;28;8862;-87
2021/06/25 07:04:05;;;;;;;;;30.00;29.25;;;;;;;;4966773;28;8873;-87
2021/06/25 07:06:34;;;;;;;;;27.50;26.00;;;;;;;;4966333;28;8896;-87
2021/06/25 07:09:01;;;;;;;;;26.75;25.75;;;;;;;;4963163;28;8869;-86
2021/06/25 07:11:28;;;;;;;;;24.25;23.25;;;;;;;;4968082;28;9670;-86
2021/06/25 07:13:56;;;;;;;;;28.25;26.25;;;;;;;;4968494;28;9020;-86
2021/06/25 07:16:23;;;;;;;;;28.00;26.50;;;;;;;;4964683;28;8882;-89
2021/06/25 07:18:50;;;;;;;;;27.00;26.00;;;;;;;;4969360;28;8980;-90
2021/06/25 07:21:18;;;;;;;;;28.25;27.75;;;;;;;;4968182;28;8878;-93
2021/06/25 07:23:47;;;;;;;;;31.25;26.00;;;;;;;;4968909;28;8892;-88
2021/06/25 07:26:15;;;;;;;;;30.50;28.75;;;;;;;;4966410;28;8877;-88
2021/06/25 07:28:42;;;;;;;;;29.75;29.00;;;;;;;;4967125;28;9028;-88
2021/06/25 07:31:09;;;;;;;;;29.50;27.00;;;;;;;;4966494;28;8799;-88
2021/06/25 07:33:37;;;;;;;;;31.00;29.50;;;;;;;;4966355;28;8971;-91
2021/06/25 07:36:04;;;;;;;;;33.75;30.50;;;;;;;;4967464;28;8882;-86
2021/06/25 07:38:31;;;;;;;;;25.00;25.00;;;;;;;;4960862;28;8996;-83
2021/06/25 07:41:00;;;;;;;;;26.25;24.75;;;;;;;;4967165;28;8869;-83
2021/06/25 07:43:27;;;;;;;;;25.50;25.50;;;;;;;;4967068;28;8899;-84
2021/06/25 07:45:55;;;;;;;;;27.50;25.75;;;;;;;;4965827;28;9620;-73
2021/06/25 07:48:22;;;;;;;;;27.75;27.75;;;;;;;;4965886;28;8857;-78
2021/06/25 07:50:49;;;;;;;;;30.00;28.00;;;;;;;;4964796;28;8877;-80
2021/06/25 07:53:17;;;;;;;;;27.50;26.25;;;;;;;;4964968;28;8978;-82
2021/06/25 07:55:44;;;;;;;;;23.75;23.75;;;;;;;;4966495;28;9736;-82
2021/06/25 07:58:14;;;;;;;;;33.50;26.50;;;;;;;;4967497;28;8861;-80
2021/06/25 08:00:42;;;;;;;;;21.33;21.33;;;;;;;;4966474;28;8925;-87
2021/06/25 08:03:09;;;;;;;;;27.25;25.50;;;;;;;;4966595;28;8895;-86
2021/06/25 08:05:36;;;;;;;;;29.50;25.50;;;;;;;;4965512;28;8878;-84
2021/06/25 08:08:04;;;;;;;;;23.50;22.25;;;;;;;;4963808;28;8881;-85
2021/06/25 08:10:32;;;;;;;;;28.00;26.50;;;;;;;;4967824;28;8921;-83
2021/06/25 08:12:59;;;;;;;;;30.50;29.25;;;;;;;;4966284;28;8878;-84
2021/06/25 08:15:28;;;;;;;;;23.50;23.50;;;;;;;;4966218;28;9470;-84
2021/06/25 08:17:55;;;;;;;;;22.00;21.75;;;;;;;;4967216;28;9651;-83
2021/06/25 08:20:23;;;;;;;;;28.50;25.25;;;;;;;;4968195;28;8943;-84
2021/06/25 08:22:50;;;;;;;;;22.75;22.75;;;;;;;;4967593;28;8869;-85
2021/06/25 08:25:18;;;;;;;;;24.00;23.75;;;;;;;;4967323;28;8885;-85
2021/06/25 08:27:45;;;;;;;;;26.75;25.25;;;;;;;;4968398;28;8905;-85
2021/06/25 08:30:15;;;;;;;;;22.25;22.25;;;;;;;;4966257;28;8915;-85
2021/06/25 08:32:44;;;;;;;;;25.25;25.25;;;;;;;;4967546;28;8892;-84
2021/06/25 08:35:12;;;;;;;;;24.50;19.75;;;;;;;;4966829;28;8913;-85
2021/06/25 08:37:40;;;;;;;;;19.75;17.75;;;;;;;;4967492;28;8885;-84
2021/06/25 08:40:09;;;;;;;;;20.00;20.00;;;;;;;;4967023;28;8877;-84
2021/06/25 08:42:37;;;;;;;;;19.25;19.25;;;;;;;;4966704;28;8858;-83
2021/06/25 08:45:05;;;;;;;;;23.75;20.25;;;;;;;;4967134;28;9612;-85
2021/06/25 08:47:33;;;;;;;;;24.50;21.50;;;;;;;;4965629;28;8890;-85
2021/06/25 08:50:01;;;;;;;;;22.25;22.25;;;;;;;;4967858;28;8993;-84
2021/06/25 08:52:29;;;;;;;;;20.25;20.25;;;;;;;;4966020;28;8903;-81
2021/06/25 08:54:56;;;;;;;;;25.00;24.50;;;;;;;;4968684;28;8892;-83
2021/06/25 08:57:23;;;;;;;;;39.00;32.33;;;;;;;;4967486;28;8883;-83
2021/06/25 08:59:51;;;;;;;;;40.33;36.00;;;;;;;;4965214;28;9117;-83
2021/06/25 09:02:20;;;;;;;;;32.75;30.75;;;;;;;;4966372;28;9209;-84
2021/06/25 09:04:48;;;;;;;;;24.25;22.75;;;;;;;;4965824;28;8905;-83
2021/06/25 09:07:17;;;;;;;;;24.25;22.75;;;;;;;;4966771;28;8865;-84
2021/06/25 09:09:46;;;;;;;;;24.00;21.50;;;;;;;;4966040;28;8889;-83
2021/06/25 09:12:18;;;;;;;;;31.25;26.75;;;;;;;;4966575;28;8873;-84
2021/06/25 09:14:59;;;;;;;;;26.00;20.25;;;;;;;;4966042;28;8883;-84
2021/06/25 09:17:27;;;;;;;;;17.25;17.25;;;;;;;;4965763;28;8881;-85
2021/06/25 09:19:54;;;;;;;;;21.00;21.00;;;;;;;;4954647;28;8905;-81
2021/06/25 09:22:23;;;;;;;;;23.75;22.25;;;;;;;;4965339;28;8857;-85
2021/06/25 09:25:02;;;;;;;;;19.50;17.75;;;;;;;;4965623;28;8861;-85
2021/06/25 09:27:32;;;;;;;;;25.50;23.25;;;;;;;;4965783;28;8897;-84
2021/06/25 09:30:00;;;;;;;;;19.00;19.00;;;;;;;;4965601;28;8869;-85
2021/06/25 09:32:37;;;;;;;;;21.40;21.40;;;;;;;;4965715;28;8810;-84
2021/06/25 09:35:14;;;;;;;;;26.40;22.60;;;;;;;;4965497;28;8873;-83
2021/06/25 09:37:44;;;;;;;;;21.20;21.20;;;;;;;;4966192;28;9640;-82
2021/06/25 09:40:14;;;;;;;;;19.80;19.80;;;;;;;;4965306;28;8873;-84
2021/06/25 09:42:43;;;;;;;;;21.00;21.00;;;;;;;;4955907;28;8885;-84
2021/06/25 09:45:13;;;;;;;;;16.80;16.80;;;;;;;;4963596;28;8895;-82
2021/06/25 09:47:42;;;;;;;;;16.75;16.50;;;;;;;;4963880;28;8959;-85
2021/06/25 09:50:13;;;;;;;;;21.40;20.60;;;;;;;;4966460;28;8881;-85
2021/06/25 09:52:52;;;;;;;;;22.80;22.80;;;;;;;;4955828;28;8873;-83
2021/06/25 09:55:21;;;;;;;;;23.00;21.00;;;;;;;;4966242;28;8955;-83
2021/06/25 10:03:42;;;;;;;;;18.40;17.00;;;;;;;;4965482;28;8853;-83
2021/06/25 10:06:12;;;;;;;;;22.40;18.20;;;;;;;;4947598;28;8912;-82
2021/06/25 10:08:41;;;;;;;;;18.20;18.20;;;;;;;;4966230;28;8873;-84
2021/06/25 10:11:09;;;;;;;;;18.20;17.40;;;;;;;;4965474;28;8873;-83
2021/06/25 10:13:38;;;;;;;;;17.40;14.00;;;;;;;;4965098;28;9518;-83
2021/06/25 10:16:06;;;;;;;;;16.40;12.60;;;;;;;;4964187;28;8889;-83
2021/06/25 10:18:38;;;;;;;;;18.60;17.00;;;;;;;;4963617;28;8991;-83
2021/06/25 10:21:07;;;;;;;;;12.60;12.60;;;;;;;;4965115;28;8878;-79
2021/06/25 10:23:36;;;;;;;;;12.40;12.40;;;;;;;;4958243;28;8908;-78
2021/06/25 10:26:08;;;;;;;;;14.60;13.40;;;;;;;;4960968;28;9044;-78
2021/06/25 10:28:38;;;;;;;;;16.20;15.80;;;;;;;;4960565;28;8893;-80
2021/06/25 10:31:05;;;;;;;;;15.80;14.60;;;;;;;;4962073;28;8833;-81
2021/06/25 10:33:33;;;;;;;;;12.80;12.80;;;;;;;;4957248;28;9647;-73
2021/06/25 10:36:04;;;;;;;;;13.80;12.20;;;;;;;;4961864;28;8917;-78
2021/06/25 10:38:32;;;;;;;;;8.40;8.40;;;;;;;;4962034;28;8873;-76
2021/06/25 10:41:00;;;;;;;;;10.80;10.80;;;;;;;;4961703;28;9000;-76
2021/06/25 10:43:49;;;;;;;;;12.00;12.00;;;;;;;;4971091;28;8897;-78
2021/06/25 10:46:40;;;;;;;;;11.80;11.80;;;;;;;;4964661;28;8854;-85
2021/06/25 10:49:09;;;;;;;;;11.00;11.00;;;;;;;;4947103;28;8881;-81
2021/06/25 10:51:39;;;;;;;;;13.20;12.60;;;;;;;;4964341;28;9596;-83
2021/06/25 10:54:13;;;;;;;;;11.60;11.60;;;;;;;;4961281;28;8889;-80
2021/06/25 10:56:42;;;;;;;;;14.80;12.00;;;;;;;;4962034;28;8912;-83
2021/06/25 10:59:20;;;;;;;;;14.00;13.00;;;;;;;;4964371;28;9035;-82
2021/06/25 11:01:52;;;;;;;;;15.20;15.20;;;;;;;;4961184;28;8830;-83
2021/06/25 11:04:39;;;;;;;;;13.80;13.80;;;;;;;;4962095;28;9034;-84
2021/06/25 11:07:09;;;;;;;;;8.00;8.00;;;;;;;;4961858;28;8866;-85
2021/06/25 11:10:00;;;;;;;;;7.80;7.80;;;;;;;;4960894;28;8878;-84
2021/06/25 11:12:29;;;;;;;;;8.40;8.40;;;;;;;;4959228;28;8870;-83
2021/06/25 11:15:30;;;;;;;;;11.20;10.60;;;;;;;;4959526;28;8873;-82
2021/06/25 11:17:59;;;;;;;;;7.20;7.20;;;;;;;;4962462;28;8865;-86
2021/06/25 11:20:29;;;;;;;;;10.80;10.80;;;;;;;;4962419;28;8943;-83
2021/06/25 11:23:05;;;;;;;;;11.20;11.20;;;;;;;;4963715;28;9016;-90
2021/06/25 11:25:47;;;;;;;;;10.80;10.20;;;;;;;;4965964;28;8987;-85
2021/06/25 11:28:33;;;;;;;;;11.20;10.00;;;;;;;;4966716;28;8896;-81
2021/06/25 11:31:07;;;;;;;;;10.20;10.20;;;;;;;;4974012;28;8812;-83
2021/06/25 11:33:38;;;;;;;;;10.00;8.00;;;;;;;;4972740;28;9000;-85
2021/06/25 11:36:25;;;;;;;;;9.60;9.60;;;;;;;;4968774;28;9644;-90
2021/06/25 11:39:04;;;;;;;;;10.40;10.40;;;;;;;;4969755;28;8975;-80
2021/06/25 11:41:35;;;;;;;;;12.20;12.20;;;;;;;;4971996;28;8889;-87
2021/06/25 11:44:05;;;;;;;;;12.40;9.60;;;;;;;;4966078;28;8877;-82
2021/06/25 11:46:34;;;;;;;;;12.00;12.00;;;;;;;;4966524;28;8983;-78
2021/06/25 11:49:03;;;;;;;;;10.00;10.00;;;;;;;;4966248;28;8980;-80
2021/06/25 11:51:36;;;;;;;;;10.20;10.20;;;;;;;;4967063;28;9678;-86
2021/06/25 11:54:05;;;;;;;;;9.40;9.40;;;;;;;;4964745;28;8894;-84
2021/06/25 11:56:32;;;;;;;;;8.80;8.80;;;;;;;;4966424;28;8873;-84
2021/06/25 11:59:01;;;;;;;;;11.00;11.00;;;;;;;;4964102;28;8861;-82
2021/06/25 12:01:30;;;;;;;;;10.20;10.20;;;;;;;;4965513;28;8858;-80
2021/06/25 12:03:59;;;;;;;;;10.60;9.40;;;;;;;;4965422;28;8877;-85
2021/06/25 12:06:27;;;;;;;;;8.80;8.80;;;;;;;;4966673;28;8885;-86
2021/06/25 12:08:57;;;;;;;;;9.80;9.60;;;;;;;;4969384;28;8893;-89
2021/06/25 12:11:26;;;;;;;;;11.00;10.20;;;;;;;;4965261;28;8896;-84
2021/06/25 12:13:58;;;;;;;;;10.60;8.80;;;;;;;;4967567;28;9659;-84
2021/06/25 12:16:25;;;;;;;;;9.00;7.60;;;;;;;;4967305;28;8997;-83
2021/06/25 12:18:53;;;;;;;;;8.40;8.40;;;;;;;;4967020;28;8873;-87
2021/06/25 12:21:23;;;;;;;;;8.40;7.40;;;;;;;;4971165;28;8909;-86
2021/06/25 12:23:54;;;;;;;;;9.40;9.40;;;;;;;;4970740;28;8887;-82
2021/06/25 12:26:22;;;;;;;;;10.40;8.80;;;;;;;;4968915;28;8908;-84
2021/06/25 12:28:51;;;;;;;;;7.80;7.80;;;;;;;;4972819;28;8885;-87
2021/06/25 12:31:21;;;;;;;;;7.40;7.40;;;;;;;;4967990;28;8872;-88
2021/06/25 12:33:50;;;;;;;;;7.00;6.80;;;;;;;;4967087;28;8916;-79
2021/06/25 12:36:17;;;;;;;;;5.20;4.00;;;;;;;;4967216;28;8882;-87
2021/06/25 12:38:50;;;;;;;;;7.20;7.20;;;;;;;;4967158;28;8877;-87
2021/06/25 12:41:18;;;;;;;;;8.20;8.20;;;;;;;;4967825;28;8897;-84
2021/06/25 12:43:47;;;;;;;;;7.60;7.60;;;;;;;;4967484;28;8897;-86
2021/06/25 12:46:16;;;;;;;;;6.60;6.60;;;;;;;;4966645;28;9012;-84
2021/06/25 12:48:48;;;;;;;;;9.80;8.60;;;;;;;;4967489;28;8924;-82
2021/06/25 12:51:16;;;;;;;;;7.00;7.00;;;;;;;;4955364;28;8880;-83
2021/06/25 12:53:49;;;;;;;;;6.20;6.20;;;;;;;;4967624;28;8861;-86
2021/06/25 12:56:19;;;;;;;;;6.00;6.00;;;;;;;;4967596;28;8849;-86
2021/06/25 12:58:49;;;;;;;;;7.80;6.00;;;;;;;;4967208;28;8975;-86
2021/06/25 13:01:17;;;;;;;;;5.80;5.80;;;;;;;;4967536;28;8917;-81
2021/06/25 13:03:46;;;;;;;;;7.00;7.00;;;;;;;;4970894;28;9673;-87
2021/06/25 13:06:31;;;;;;;;;8.00;8.00;;;;;;;;4967439;28;9023;-85
2021/06/25 13:09:02;;;;;;;;;8.40;8.40;;;;;;;;4966981;28;8881;-85
2021/06/25 13:11:30;;;;;;;;;7.00;6.20;;;;;;;;4967196;28;9016;-79
2021/06/25 13:13:58;;;;;;;;;7.60;7.60;;;;;;;;4967580;28;8884;-90
2021/06/25 13:16:26;;;;;;;;;7.00;5.40;;;;;;;;4966067;28;8896;-88
2021/06/25 13:18:55;;;;;;;;;3.60;3.60;;;;;;;;4965886;28;8870;-82
2021/06/25 13:21:58;;;;;;;;;8.60;8.60;;;;;;;;4966351;28;8899;-85
2021/06/25 13:24:51;;;;;;;;;8.20;8.20;;;;;;;;4959709;28;8915;-85
2021/06/25 13:27:19;;;;;;;;;8.40;8.40;;;;;;;;4966945;28;8861;-88
2021/06/25 13:29:51;;;;;;;;;5.60;5.60;;;;;;;;4966140;28;8926;-84
2021/06/25 13:32:21;;;;;;;;;8.00;6.40;;;;;;;;4965304;28;8838;-85
2021/06/25 13:34:56;;;;;;;;;9.80;6.80;;;;;;;;4965739;28;9033;-80
2021/06/25 13:37:40;;;;;;;;;5.00;3.00;;;;;;;;4966449;28;8896;-85
2021/06/25 13:40:13;;;;;;;;;8.20;6.80;;;;;;;;4966715;28;8885;-84
2021/06/25 13:42:40;;;;;;;;;6.60;6.60;;;;;;;;4965232;28;8884;-88
2021/06/25 13:45:19;;;;;;;;;6.60;6.60;;;;;;;;4964474;28;8944;-84
2021/06/25 13:47:46;;;;;;;;;4.00;4.00;;;;;;;;4965208;28;8896;-78
2021/06/25 13:50:14;;;;;;;;;4.00;3.60;;;;;;;;4957605;28;8911;-82
2021/06/25 13:52:52;;;;;;;;;4.00;4.00;;;;;;;;4966163;28;9774;-88
2021/06/25 13:55:23;;;;;;;;;4.80;4.80;;;;;;;;4964732;28;8944;-88
2021/06/25 13:57:52;;;;;;;;;8.00;5.40;;;;;;;;4966545;28;8964;-85
2021/06/25 14:00:37;;;;;;;;;4.80;4.80;;;;;;;;4964880;28;8901;-86
2021/06/25 14:03:06;;;;;;;;;4.00;4.00;;;;;;;;4966103;28;8901;-81
2021/06/25 14:05:34;;;;;;;;;5.60;4.60;;;;;;;;4965807;28;8873;-80
2021/06/25 14:08:03;;;;;;;;;6.20;4.40;;;;;;;;4964806;28;8943;-82
2021/06/25 14:10:33;;;;;;;;;3.00;3.00;;;;;;;;4959431;28;8893;-87
2021/06/25 14:13:01;;;;;;;;;5.00;5.00;;;;;;;;4964255;28;8933;-85
2021/06/25 14:15:42;;;;;;;;;3.60;3.60;;;;;;;;4963731;28;8836;-82
2021/06/25 14:18:15;;;;;;;;;2.00;2.00;;;;;;;;4963451;28;8865;-90
2021/06/25 14:20:42;;;;;;;;;3.20;3.20;;;;;;;;4962267;28;8890;-90
2021/06/25 14:23:09;;;;;;;;;2.00;2.00;;;;;;;;4962812;28;8887;-88
2021/06/25 14:25:39;;;;;;;;;2.00;2.00;;;;;;;;4964815;28;8881;-86
2021/06/25 14:28:06;;;;;;;;;3.40;2.00;;;;;;;;4965751;28;8841;-88
2021/06/25 14:30:33;;;;;;;;;2.80;2.80;;;;;;;;4963397;28;8826;-77
2021/06/25 14:33:01;;;;;;;;;1.80;1.00;;;;;;;;4962209;28;9698;-84
2021/06/25 14:35:28;;;;;;;;;2.40;2.00;;;;;;;;4963667;28;9000;-81
2021/06/25 14:37:56;;;;;;;;;2.00;2.00;;;;;;;;4964330;28;8904;-82
2021/06/25 14:40:24;;;;;;;;;2.00;2.00;;;;;;;;4962141;28;8857;-85
2021/06/25 14:42:58;;;;;;;;;4.00;3.00;;;;;;;;4961347;28;8996;-83
2021/06/25 14:45:26;;;;;;;;;3.00;2.40;;;;;;;;4961278;28;8850;-79
2021/06/25 14:47:54;;;;;;;;;3.00;3.00;;;;;;;;4962941;28;8861;-78
2021/06/25 14:50:21;;;;;;;;;3.20;3.20;;;;;;;;4964156;28;8951;-86
2021/06/25 14:52:49;;;;;;;;;3.60;3.60;;;;;;;;4963667;28;8875;-83
2021/06/25 14:55:18;;;;;;;;;5.00;3.20;;;;;;;;4962140;28;8861;-85
2021/06/25 14:57:45;;;;;;;;;4.20;4.20;;;;;;;;4963648;28;9782;-82
2021/06/25 15:00:15;;;;;;;;;3.80;3.80;;;;;;;;4966941;28;8877;-84